sensor_id;sensor_type;location;lat;lon;timestamp;temperature;humidity
30473;DHT22;17263;48.160;11.452;2024-03-29T00:00:43;5.10;99.90
30473;DHT22;17263;48.160;11.452;2024-03-29T00:03:12;5.10;99.90
30473;DHT22;17263;48.160;11.452;2024-03-29T00:05:38;5.10;99.90
30473;DHT22;17263;48.160;11.452;2024-03-29T00:08:04;5.10;99.90
30473;DHT22;17263;48.160;11.452;2024-03-29T00:10:31;5.10;99.90
30473;DHT22;17263;48.160;11.452;2024-03-29T00:12:57;5.20;99.90
30473;DHT22;17263;48.160;11.452;2024-03-29T00:15:23;5.20;99.90
30473;DHT22;17263;48.160;11.452;2024-03-29T00:17:49;5.20;99.90
30473;DHT22;17263;48.160;11.452;2024-03-29T00:20:16;5.30;99.90
30473;DHT22;17263;48.160;11.452;2024-03-29T00:22:42;5.30;99.90
30473;DHT22;17263;48.160;11.452;2024-03-29T00:25:09;5.20;99.90
30473;DHT22;17263;48.160;11.452;2024-03-29T00:27:35;5.20;99.90
30473;DHT22;17263;48.160;11.452;2024-03-29T00:30:02;5.10;99.90
30473;DHT22;17263;48.160;11.452;2024-03-29T00:32:28;5.10;99.90
30473;DHT22;17263;48.160;11.452;2024-03-29T00:34:54;5.10;99.90
30473;DHT22;17263;48.160;11.452;2024-03-29T00:37:21;5.00;99.90
30473;DHT22;17263;48.160;11.452;2024-03-29T00:39:48;5.00;99.90
30473;DHT22;17263;48.160;11.452;2024-03-29T00:42:14;4.90;99.90
30473;DHT22;17263;48.160;11.452;2024-03-29T00:44:45;5.00;99.90
30473;DHT22;17263;48.160;11.452;2024-03-29T00:47:11;5.00;99.90
30473;DHT22;17263;48.160;11.452;2024-03-29T00:49:37;5.00;99.90
30473;DHT22;17263;48.160;11.452;2024-03-29T00:52:03;4.90;99.90
30473;DHT22;17263;48.160;11.452;2024-03-29T00:54:30;4.90;99.90
30473;DHT22;17263;48.160;11.452;2024-03-29T00:56:57;4.80;99.90
30473;DHT22;17263;48.160;11.452;2024-03-29T00:59:23;4.80;99.90
30473;DHT22;17263;48.160;11.452;2024-03-29T01:01:49;4.80;99.90
30473;DHT22;17263;48.160;11.452;2024-03-29T01:04:15;4.80;99.90
30473;DHT22;17263;48.160;11.452;2024-03-29T01:06:41;4.80;99.90
30473;DHT22;17263;48.160;11.452;2024-03-29T01:09:09;4.70;99.90
30473;DHT22;17263;48.160;11.452;2024-03-29T01:11:37;4.70;99.90
30473;DHT22;17263;48.160;11.452;2024-03-29T01:14:07;4.70;99.90
30473;DHT22;17263;48.160;11.452;2024-03-29T01:16:33;4.60;99.90
30473;DHT22;17263;48.160;11.452;2024-03-29T01:18:59;4.60;99.90
30473;DHT22;17263;48.160;11.452;2024-03-29T01:21:28;4.60;99.90
30473;DHT22;17263;48.160;11.452;2024-03-29T01:23:54;4.60;99.90
30473;DHT22;17263;48.160;11.452;2024-03-29T01:26:20;4.60;99.90
30473;DHT22;17263;48.160;11.452;2024-03-29T01:28:46;4.60;99.90
30473;DHT22;17263;48.160;11.452;2024-03-29T01:31:12;4.60;99.90
30473;DHT22;17263;48.160;11.452;2024-03-29T01:33:39;4.50;99.90
30473;DHT22;17263;48.160;11.452;2024-03-29T01:36:07;4.40;99.90
30473;DHT22;17263;48.160;11.452;2024-03-29T01:38:34;4.40;99.90
30473;DHT22;17263;48.160;11.452;2024-03-29T01:41:01;4.40;99.90
30473;DHT22;17263;48.160;11.452;2024-03-29T01:43:27;4.30;99.90
30473;DHT22;17263;48.160;11.452;2024-03-29T01:45:56;4.40;99.90
30473;DHT22;17263;48.160;11.452;2024-03-29T01:48:23;4.30;99.90
30473;DHT22;17263;48.160;11.452;2024-03-29T01:50:51;4.30;99.90
30473;DHT22;17263;48.160;11.452;2024-03-29T01:53:19;4.20;99.90
30473;DHT22;17263;48.160;11.452;2024-03-29T01:55:45;4.30;99.90
30473;DHT22;17263;48.160;11.452;2024-03-29T01:58:12;4.20;99.90
30473;DHT22;17263;48.160;11.452;2024-03-29T02:00:44;4.20;99.90
30473;DHT22;17263;48.160;11.452;2024-03-29T02:03:15;4.30;99.90
30473;DHT22;17263;48.160;11.452;2024-03-29T02:05:43;4.20;99.90
30473;DHT22;17263;48.160;11.452;2024-03-29T02:08:10;4.20;99.90
30473;DHT22;17263;48.160;11.452;2024-03-29T02:10:37;4.20;99.90
30473;DHT22;17263;48.160;11.452;2024-03-29T02:13:03;4.30;99.90
30473;DHT22;17263;48.160;11.452;2024-03-29T02:15:30;4.20;99.90
30473;DHT22;17263;48.160;11.452;2024-03-29T02:17:57;4.30;99.90
30473;DHT22;17263;48.160;11.452;2024-03-29T02:20:24;4.30;99.90
30473;DHT22;17263;48.160;11.452;2024-03-29T02:22:54;4.30;99.90
30473;DHT22;17263;48.160;11.452;2024-03-29T02:25:20;4.30;99.90
30473;DHT22;17263;48.160;11.452;2024-03-29T02:27:51;4.30;99.90
30473;DHT22;17263;48.160;11.452;2024-03-29T02:30:17;4.30;99.90
30473;DHT22;17263;48.160;11.452;2024-03-29T02:32:44;4.30;99.90
30473;DHT22;17263;48.160;11.452;2024-03-29T02:35:10;4.40;99.90
30473;DHT22;17263;48.160;11.452;2024-03-29T02:37:36;4.40;99.90
30473;DHT22;17263;48.160;11.452;2024-03-29T02:40:03;4.40;99.90
30473;DHT22;17263;48.160;11.452;2024-03-29T02:42:29;4.40;99.90
30473;DHT22;17263;48.160;11.452;2024-03-29T02:44:55;4.40;99.90
30473;DHT22;17263;48.160;11.452;2024-03-29T02:47:22;4.50;99.90
30473;DHT22;17263;48.160;11.452;2024-03-29T02:49:48;4.50;99.90
30473;DHT22;17263;48.160;11.452;2024-03-29T02:52:14;4.50;99.90
30473;DHT22;17263;48.160;11.452;2024-03-29T02:54:41;4.40;99.90
30473;DHT22;17263;48.160;11.452;2024-03-29T02:57:07;4.40;99.90
30473;DHT22;17263;48.160;11.452;2024-03-29T02:59:33;4.40;99.90
30473;DHT22;17263;48.160;11.452;2024-03-29T03:01:59;4.40;99.90
30473;DHT22;17263;48.160;11.452;2024-03-29T03:04:26;4.30;99.90
30473;DHT22;17263;48.160;11.452;2024-03-29T03:06:52;4.30;99.90
30473;DHT22;17263;48.160;11.452;2024-03-29T03:09:18;4.30;99.90
30473;DHT22;17263;48.160;11.452;2024-03-29T03:12:02;4.30;99.90
30473;DHT22;17263;48.160;11.452;2024-03-29T03:14:28;4.40;99.90
30473;DHT22;17263;48.160;11.452;2024-03-29T03:16:54;4.30;99.90
30473;DHT22;17263;48.160;11.452;2024-03-29T03:19:20;4.30;99.90
30473;DHT22;17263;48.160;11.452;2024-03-29T03:21:47;4.30;99.90
30473;DHT22;17263;48.160;11.452;2024-03-29T03:24:13;4.30;99.90
30473;DHT22;17263;48.160;11.452;2024-03-29T03:26:39;4.30;99.90
30473;DHT22;17263;48.160;11.452;2024-03-29T03:29:06;4.30;99.90
30473;DHT22;17263;48.160;11.452;2024-03-29T03:31:33;4.30;99.90
30473;DHT22;17263;48.160;11.452;2024-03-29T03:33:59;4.30;99.90
30473;DHT22;17263;48.160;11.452;2024-03-29T03:36:25;4.30;99.90
30473;DHT22;17263;48.160;11.452;2024-03-29T03:38:51;4.30;99.90
30473;DHT22;17263;48.160;11.452;2024-03-29T03:41:17;4.40;99.90
30473;DHT22;17263;48.160;11.452;2024-03-29T03:43:43;4.30;99.90
30473;DHT22;17263;48.160;11.452;2024-03-29T03:46:09;4.30;99.90
30473;DHT22;17263;48.160;11.452;2024-03-29T03:48:35;4.30;99.90
30473;DHT22;17263;48.160;11.452;2024-03-29T03:51:01;4.40;99.90
30473;DHT22;17263;48.160;11.452;2024-03-29T03:53:27;4.40;99.90
30473;DHT22;17263;48.160;11.452;2024-03-29T03:55:53;4.40;99.90
30473;DHT22;17263;48.160;11.452;2024-03-29T03:58:20;4.30;99.90
30473;DHT22;17263;48.160;11.452;2024-03-29T04:00:46;4.30;99.90
30473;DHT22;17263;48.160;11.452;2024-03-29T04:03:12;4.30;99.90
30473;DHT22;17263;48.160;11.452;2024-03-29T04:05:39;4.30;99.90
30473;DHT22;17263;48.160;11.452;2024-03-29T04:08:05;4.30;99.90
30473;DHT22;17263;48.160;11.452;2024-03-29T04:10:31;4.30;99.90
30473;DHT22;17263;48.160;11.452;2024-03-29T04:12:57;4.30;99.90
30473;DHT22;17263;48.160;11.452;2024-03-29T04:15:23;4.30;99.90
30473;DHT22;17263;48.160;11.452;2024-03-29T04:17:49;4.40;99.90
30473;DHT22;17263;48.160;11.452;2024-03-29T04:20:15;4.40;99.90
30473;DHT22;17263;48.160;11.452;2024-03-29T04:22:41;4.40;99.90
30473;DHT22;17263;48.160;11.452;2024-03-29T04:25:07;4.40;99.90
30473;DHT22;17263;48.160;11.452;2024-03-29T04:27:33;4.30;99.90
30473;DHT22;17263;48.160;11.452;2024-03-29T04:29:59;4.40;99.90
30473;DHT22;17263;48.160;11.452;2024-03-29T04:32:25;4.30;99.90
30473;DHT22;17263;48.160;11.452;2024-03-29T04:34:52;4.40;99.90
30473;DHT22;17263;48.160;11.452;2024-03-29T04:37:18;4.40;99.90
30473;DHT22;17263;48.160;11.452;2024-03-29T04:39:45;4.30;99.90
30473;DHT22;17263;48.160;11.452;2024-03-29T04:42:11;4.30;99.90
30473;DHT22;17263;48.160;11.452;2024-03-29T04:44:38;4.30;99.90
30473;DHT22;17263;48.160;11.452;2024-03-29T04:47:04;4.30;99.90
30473;DHT22;17263;48.160;11.452;2024-03-29T04:49:31;4.30;99.90
30473;DHT22;17263;48.160;11.452;2024-03-29T04:52:00;4.30;99.90
30473;DHT22;17263;48.160;11.452;2024-03-29T04:54:27;4.30;99.90
30473;DHT22;17263;48.160;11.452;2024-03-29T04:56:53;4.30;99.90
30473;DHT22;17263;48.160;11.452;2024-03-29T04:59:19;4.40;99.90
30473;DHT22;17263;48.160;11.452;2024-03-29T05:01:49;4.40;99.90
30473;DHT22;17263;48.160;11.452;2024-03-29T05:04:17;4.40;99.90
30473;DHT22;17263;48.160;11.452;2024-03-29T05:06:45;4.50;99.90
30473;DHT22;17263;48.160;11.452;2024-03-29T05:09:13;4.60;99.90
30473;DHT22;17263;48.160;11.452;2024-03-29T05:11:39;4.50;99.90
30473;DHT22;17263;48.160;11.452;2024-03-29T05:14:06;4.60;99.90
30473;DHT22;17263;48.160;11.452;2024-03-29T05:16:32;4.60;99.90
30473;DHT22;17263;48.160;11.452;2024-03-29T05:18:58;4.70;99.90
30473;DHT22;17263;48.160;11.452;2024-03-29T05:21:24;4.80;99.90
30473;DHT22;17263;48.160;11.452;2024-03-29T05:23:50;4.90;99.90
30473;DHT22;17263;48.160;11.452;2024-03-29T05:26:16;5.00;99.90
30473;DHT22;17263;48.160;11.452;2024-03-29T05:28:42;5.20;99.90
30473;DHT22;17263;48.160;11.452;2024-03-29T05:31:12;5.30;99.90
30473;DHT22;17263;48.160;11.452;2024-03-29T05:33:41;5.30;99.90
30473;DHT22;17263;48.160;11.452;2024-03-29T05:36:07;5.50;99.90
30473;DHT22;17263;48.160;11.452;2024-03-29T05:38:39;5.50;99.90
30473;DHT22;17263;48.160;11.452;2024-03-29T05:41:05;5.60;99.90
30473;DHT22;17263;48.160;11.452;2024-03-29T05:43:31;5.70;99.90
30473;DHT22;17263;48.160;11.452;2024-03-29T05:45:58;5.80;99.90
30473;DHT22;17263;48.160;11.452;2024-03-29T05:48:26;5.80;99.90
30473;DHT22;17263;48.160;11.452;2024-03-29T05:50:52;6.00;99.90
30473;DHT22;17263;48.160;11.452;2024-03-29T05:53:18;6.10;99.90
30473;DHT22;17263;48.160;11.452;2024-03-29T05:55:44;6.10;99.90
30473;DHT22;17263;48.160;11.452;2024-03-29T05:58:10;6.20;99.90
30473;DHT22;17263;48.160;11.452;2024-03-29T06:00:36;6.20;99.90
30473;DHT22;17263;48.160;11.452;2024-03-29T06:03:02;6.30;99.90
30473;DHT22;17263;48.160;11.452;2024-03-29T06:05:29;6.30;99.90
30473;DHT22;17263;48.160;11.452;2024-03-29T06:07:55;6.40;99.90
30473;DHT22;17263;48.160;11.452;2024-03-29T06:10:21;6.50;99.90
30473;DHT22;17263;48.160;11.452;2024-03-29T06:12:47;6.60;99.90
30473;DHT22;17263;48.160;11.452;2024-03-29T06:15:13;6.80;99.90
30473;DHT22;17263;48.160;11.452;2024-03-29T06:17:58;7.00;99.90
30473;DHT22;17263;48.160;11.452;2024-03-29T06:20:24;7.20;99.90
30473;DHT22;17263;48.160;11.452;2024-03-29T06:22:50;7.60;99.90
30473;DHT22;17263;48.160;11.452;2024-03-29T06:25:16;8.10;99.90
30473;DHT22;17263;48.160;11.452;2024-03-29T06:27:42;8.50;99.90
30473;DHT22;17263;48.160;11.452;2024-03-29T06:30:09;9.20;99.90
30473;DHT22;17263;48.160;11.452;2024-03-29T06:32:35;9.70;99.90
30473;DHT22;17263;48.160;11.452;2024-03-29T06:35:03;9.80;99.90
30473;DHT22;17263;48.160;11.452;2024-03-29T06:37:29;10.00;99.90
30473;DHT22;17263;48.160;11.452;2024-03-29T06:39:55;10.40;99.90
30473;DHT22;17263;48.160;11.452;2024-03-29T06:42:21;11.00;99.90
30473;DHT22;17263;48.160;11.452;2024-03-29T06:44:47;11.80;99.90
30473;DHT22;17263;48.160;11.452;2024-03-29T06:47:13;12.60;99.90
30473;DHT22;17263;48.160;11.452;2024-03-29T06:49:40;12.70;99.90
30473;DHT22;17263;48.160;11.452;2024-03-29T06:52:06;13.10;99.90
30473;DHT22;17263;48.160;11.452;2024-03-29T06:54:32;13.60;99.90
30473;DHT22;17263;48.160;11.452;2024-03-29T06:56:59;13.60;99.90
30473;DHT22;17263;48.160;11.452;2024-03-29T06:59:26;13.80;99.90
30473;DHT22;17263;48.160;11.452;2024-03-29T07:01:52;14.30;99.90
30473;DHT22;17263;48.160;11.452;2024-03-29T07:04:22;14.80;99.90
30473;DHT22;17263;48.160;11.452;2024-03-29T07:06:50;14.80;99.90
30473;DHT22;17263;48.160;11.452;2024-03-29T07:09:20;15.20;99.90
30473;DHT22;17263;48.160;11.452;2024-03-29T07:11:47;15.70;99.90
30473;DHT22;17263;48.160;11.452;2024-03-29T07:14:14;16.40;97.40
30473;DHT22;17263;48.160;11.452;2024-03-29T07:16:40;17.10;95.60
30473;DHT22;17263;48.160;11.452;2024-03-29T07:19:06;17.50;92.90
30473;DHT22;17263;48.160;11.452;2024-03-29T07:21:32;17.30;92.10
30473;DHT22;17263;48.160;11.452;2024-03-29T07:23:58;17.00;91.90
30473;DHT22;17263;48.160;11.452;2024-03-29T07:26:24;16.60;92.10
30473;DHT22;17263;48.160;11.452;2024-03-29T07:28:50;16.30;92.40
30473;DHT22;17263;48.160;11.452;2024-03-29T07:31:17;15.90;94.00
30473;DHT22;17263;48.160;11.452;2024-03-29T07:33:43;16.10;94.50
30473;DHT22;17263;48.160;11.452;2024-03-29T07:36:09;16.50;93.10
30473;DHT22;17263;48.160;11.452;2024-03-29T07:38:37;17.20;92.50
30473;DHT22;17263;48.160;11.452;2024-03-29T07:41:04;17.70;90.90
30473;DHT22;17263;48.160;11.452;2024-03-29T07:43:51;18.00;91.20
30473;DHT22;17263;48.160;11.452;2024-03-29T07:46:18;18.10;91.10
30473;DHT22;17263;48.160;11.452;2024-03-29T07:48:45;18.00;90.80
30473;DHT22;17263;48.160;11.452;2024-03-29T07:51:11;18.50;90.30
30473;DHT22;17263;48.160;11.452;2024-03-29T07:53:37;19.20;89.50
30473;DHT22;17263;48.160;11.452;2024-03-29T07:56:03;19.50;87.60
30473;DHT22;17263;48.160;11.452;2024-03-29T07:58:29;19.80;85.70
30473;DHT22;17263;48.160;11.452;2024-03-29T08:00:55;20.30;83.30
30473;DHT22;17263;48.160;11.452;2024-03-29T08:03:22;20.90;82.20
30473;DHT22;17263;48.160;11.452;2024-03-29T08:06:14;21.20;80.50
30473;DHT22;17263;48.160;11.452;2024-03-29T08:08:44;21.40;78.60
30473;DHT22;17263;48.160;11.452;2024-03-29T08:11:10;21.60;78.40
30473;DHT22;17263;48.160;11.452;2024-03-29T08:13:38;21.50;76.10
30473;DHT22;17263;48.160;11.452;2024-03-29T08:16:05;21.80;73.70
30473;DHT22;17263;48.160;11.452;2024-03-29T08:18:32;21.90;70.20
30473;DHT22;17263;48.160;11.452;2024-03-29T08:20:59;21.60;69.70
30473;DHT22;17263;48.160;11.452;2024-03-29T08:23:26;21.70;68.80
30473;DHT22;17263;48.160;11.452;2024-03-29T08:25:52;21.70;68.50
30473;DHT22;17263;48.160;11.452;2024-03-29T08:28:24;21.70;68.00
30473;DHT22;17263;48.160;11.452;2024-03-29T08:31:05;21.60;66.90
30473;DHT22;17263;48.160;11.452;2024-03-29T08:33:32;21.30;67.50
30473;DHT22;17263;48.160;11.452;2024-03-29T08:35:59;21.00;68.50
30473;DHT22;17263;48.160;11.452;2024-03-29T08:38:25;20.70;68.10
30473;DHT22;17263;48.160;11.452;2024-03-29T08:40:51;20.60;68.20
30473;DHT22;17263;48.160;11.452;2024-03-29T08:43:17;20.80;67.10
30473;DHT22;17263;48.160;11.452;2024-03-29T08:45:46;20.90;65.90
30473;DHT22;17263;48.160;11.452;2024-03-29T08:48:12;20.70;66.40
30473;DHT22;17263;48.160;11.452;2024-03-29T08:50:38;20.50;67.40
30473;DHT22;17263;48.160;11.452;2024-03-29T08:53:04;20.30;68.90
30473;DHT22;17263;48.160;11.452;2024-03-29T08:55:31;20.00;67.90
30473;DHT22;17263;48.160;11.452;2024-03-29T08:57:58;19.60;69.80
30473;DHT22;17263;48.160;11.452;2024-03-29T09:00:26;19.10;70.30
30473;DHT22;17263;48.160;11.452;2024-03-29T09:02:52;18.80;71.80
30473;DHT22;17263;48.160;11.452;2024-03-29T09:05:18;18.40;70.90
30473;DHT22;17263;48.160;11.452;2024-03-29T09:07:44;18.20;73.30
30473;DHT22;17263;48.160;11.452;2024-03-29T09:10:12;18.10;74.50
30473;DHT22;17263;48.160;11.452;2024-03-29T09:12:38;18.20;74.60
30473;DHT22;17263;48.160;11.452;2024-03-29T09:15:05;18.30;74.00
30473;DHT22;17263;48.160;11.452;2024-03-29T09:17:35;18.30;73.70
30473;DHT22;17263;48.160;11.452;2024-03-29T09:20:01;18.40;74.30
30473;DHT22;17263;48.160;11.452;2024-03-29T09:22:27;18.60;73.90
30473;DHT22;17263;48.160;11.452;2024-03-29T09:24:53;18.60;73.60
30473;DHT22;17263;48.160;11.452;2024-03-29T09:27:19;18.50;73.10
30473;DHT22;17263;48.160;11.452;2024-03-29T09:29:47;18.60;72.80
30473;DHT22;17263;48.160;11.452;2024-03-29T09:32:14;18.60;72.70
30473;DHT22;17263;48.160;11.452;2024-03-29T09:34:43;18.60;73.40
30473;DHT22;17263;48.160;11.452;2024-03-29T09:37:10;18.60;74.60
30473;DHT22;17263;48.160;11.452;2024-03-29T09:39:36;18.70;73.30
30473;DHT22;17263;48.160;11.452;2024-03-29T09:42:03;18.60;74.20
30473;DHT22;17263;48.160;11.452;2024-03-29T09:44:33;18.70;73.70
30473;DHT22;17263;48.160;11.452;2024-03-29T09:47:03;18.70;72.90
30473;DHT22;17263;48.160;11.452;2024-03-29T09:49:31;18.70;73.70
30473;DHT22;17263;48.160;11.452;2024-03-29T09:51:59;18.80;73.30
30473;DHT22;17263;48.160;11.452;2024-03-29T09:54:28;18.70;75.10
30473;DHT22;17263;48.160;11.452;2024-03-29T09:56:57;18.60;73.40
30473;DHT22;17263;48.160;11.452;2024-03-29T09:59:24;18.60;72.60
30473;DHT22;17263;48.160;11.452;2024-03-29T10:01:54;18.60;72.50
30473;DHT22;17263;48.160;11.452;2024-03-29T10:04:23;18.40;74.40
30473;DHT22;17263;48.160;11.452;2024-03-29T10:06:50;18.40;72.80
30473;DHT22;17263;48.160;11.452;2024-03-29T10:09:18;18.30;72.40
30473;DHT22;17263;48.160;11.452;2024-03-29T10:11:45;18.20;73.00
30473;DHT22;17263;48.160;11.452;2024-03-29T10:14:11;18.10;72.30
30473;DHT22;17263;48.160;11.452;2024-03-29T10:16:37;18.00;71.70
30473;DHT22;17263;48.160;11.452;2024-03-29T10:19:06;18.00;73.10
30473;DHT22;17263;48.160;11.452;2024-03-29T10:21:33;17.90;72.80
30473;DHT22;17263;48.160;11.452;2024-03-29T10:24:13;17.90;73.90
30473;DHT22;17263;48.160;11.452;2024-03-29T10:26:41;18.00;73.20
30473;DHT22;17263;48.160;11.452;2024-03-29T10:29:08;18.00;75.80
30473;DHT22;17263;48.160;11.452;2024-03-29T10:31:37;18.00;75.10
30473;DHT22;17263;48.160;11.452;2024-03-29T10:34:04;18.10;75.90
30473;DHT22;17263;48.160;11.452;2024-03-29T10:36:32;18.30;75.00
30473;DHT22;17263;48.160;11.452;2024-03-29T10:39:11;18.40;74.80
30473;DHT22;17263;48.160;11.452;2024-03-29T10:41:41;18.50;73.70
30473;DHT22;17263;48.160;11.452;2024-03-29T10:44:11;18.60;74.90
30473;DHT22;17263;48.160;11.452;2024-03-29T10:46:43;18.60;74.10
30473;DHT22;17263;48.160;11.452;2024-03-29T10:49:10;18.60;73.10
30473;DHT22;17263;48.160;11.452;2024-03-29T10:51:41;18.50;73.40
30473;DHT22;17263;48.160;11.452;2024-03-29T10:54:11;18.50;73.00
30473;DHT22;17263;48.160;11.452;2024-03-29T10:56:38;18.50;72.80
30473;DHT22;17263;48.160;11.452;2024-03-29T11:02:13;18.80;73.00
30473;DHT22;17263;48.160;11.452;2024-03-29T11:04:46;18.80;73.50
30473;DHT22;17263;48.160;11.452;2024-03-29T11:07:20;18.90;72.70
30473;DHT22;17263;48.160;11.452;2024-03-29T11:09:52;18.90;72.50
30473;DHT22;17263;48.160;11.452;2024-03-29T11:12:23;19.00;74.10
30473;DHT22;17263;48.160;11.452;2024-03-29T11:14:57;19.10;73.40
30473;DHT22;17263;48.160;11.452;2024-03-29T11:17:26;19.20;71.10
30473;DHT22;17263;48.160;11.452;2024-03-29T11:19:53;19.20;71.40
30473;DHT22;17263;48.160;11.452;2024-03-29T11:22:19;19.30;70.90
30473;DHT22;17263;48.160;11.452;2024-03-29T11:24:46;19.20;71.70
30473;DHT22;17263;48.160;11.452;2024-03-29T11:27:13;19.20;71.90
30473;DHT22;17263;48.160;11.452;2024-03-29T11:29:41;19.20;72.20
30473;DHT22;17263;48.160;11.452;2024-03-29T11:32:09;19.20;72.00
30473;DHT22;17263;48.160;11.452;2024-03-29T11:34:35;19.30;71.80
30473;DHT22;17263;48.160;11.452;2024-03-29T11:37:11;19.30;72.20
30473;DHT22;17263;48.160;11.452;2024-03-29T11:39:37;19.30;73.00
30473;DHT22;17263;48.160;11.452;2024-03-29T11:42:03;19.40;74.00
30473;DHT22;17263;48.160;11.452;2024-03-29T11:44:29;19.50;72.20
30473;DHT22;17263;48.160;11.452;2024-03-29T11:46:58;19.60;71.90
30473;DHT22;17263;48.160;11.452;2024-03-29T11:49:24;19.60;71.90
30473;DHT22;17263;48.160;11.452;2024-03-29T11:51:50;19.60;70.70
30473;DHT22;17263;48.160;11.452;2024-03-29T11:54:16;19.60;72.40
30473;DHT22;17263;48.160;11.452;2024-03-29T11:56:43;19.70;71.30
30473;DHT22;17263;48.160;11.452;2024-03-29T11:59:09;19.70;73.60
30473;DHT22;17263;48.160;11.452;2024-03-29T12:01:36;19.80;70.80
30473;DHT22;17263;48.160;11.452;2024-03-29T12:04:05;19.80;70.60
30473;DHT22;17263;48.160;11.452;2024-03-29T12:06:31;19.70;71.40
30473;DHT22;17263;48.160;11.452;2024-03-29T12:08:57;19.60;71.50
30473;DHT22;17263;48.160;11.452;2024-03-29T12:11:23;19.60;71.60
30473;DHT22;17263;48.160;11.452;2024-03-29T12:13:51;19.50;72.30
30473;DHT22;17263;48.160;11.452;2024-03-29T12:16:17;19.50;72.10
30473;DHT22;17263;48.160;11.452;2024-03-29T12:18:46;19.70;72.70
30473;DHT22;17263;48.160;11.452;2024-03-29T12:21:12;19.80;73.80
30473;DHT22;17263;48.160;11.452;2024-03-29T12:23:47;20.10;70.40
30473;DHT22;17263;48.160;11.452;2024-03-29T12:26:13;20.40;69.20
30473;DHT22;17263;48.160;11.452;2024-03-29T12:28:40;20.50;69.10
30473;DHT22;17263;48.160;11.452;2024-03-29T12:31:09;20.50;70.30
30473;DHT22;17263;48.160;11.452;2024-03-29T12:33:35;20.60;69.80
30473;DHT22;17263;48.160;11.452;2024-03-29T12:36:01;20.70;67.60
30473;DHT22;17263;48.160;11.452;2024-03-29T12:38:29;20.80;68.80
30473;DHT22;17263;48.160;11.452;2024-03-29T12:40:56;20.90;67.70
30473;DHT22;17263;48.160;11.452;2024-03-29T12:43:23;20.80;67.50
30473;DHT22;17263;48.160;11.452;2024-03-29T12:45:50;20.80;67.70
30473;DHT22;17263;48.160;11.452;2024-03-29T12:48:21;20.80;67.10
30473;DHT22;17263;48.160;11.452;2024-03-29T12:50:49;20.80;67.50
30473;DHT22;17263;48.160;11.452;2024-03-29T12:53:16;20.80;66.90
30473;DHT22;17263;48.160;11.452;2024-03-29T12:55:43;20.90;66.70
30473;DHT22;17263;48.160;11.452;2024-03-29T12:58:15;20.80;66.50
30473;DHT22;17263;48.160;11.452;2024-03-29T13:00:42;20.80;67.30
30473;DHT22;17263;48.160;11.452;2024-03-29T13:03:09;20.80;67.30
30473;DHT22;17263;48.160;11.452;2024-03-29T13:05:36;20.80;67.00
30473;DHT22;17263;48.160;11.452;2024-03-29T13:08:11;20.90;66.20
30473;DHT22;17263;48.160;11.452;2024-03-29T13:10:38;21.00;66.70
30473;DHT22;17263;48.160;11.452;2024-03-29T13:13:08;21.10;67.30
30473;DHT22;17263;48.160;11.452;2024-03-29T13:15:38;21.10;67.00
30473;DHT22;17263;48.160;11.452;2024-03-29T13:18:05;21.20;65.30
30473;DHT22;17263;48.160;11.452;2024-03-29T13:20:32;21.20;64.00
30473;DHT22;17263;48.160;11.452;2024-03-29T13:23:00;21.30;62.70
30473;DHT22;17263;48.160;11.452;2024-03-29T13:25:26;21.20;62.50
30473;DHT22;17263;48.160;11.452;2024-03-29T13:27:54;21.30;61.30
30473;DHT22;17263;48.160;11.452;2024-03-29T13:30:25;21.20;62.10
30473;DHT22;17263;48.160;11.452;2024-03-29T13:32:52;21.20;61.40
30473;DHT22;17263;48.160;11.452;2024-03-29T13:35:18;21.20;62.70
30473;DHT22;17263;48.160;11.452;2024-03-29T13:37:49;21.20;62.60
30473;DHT22;17263;48.160;11.452;2024-03-29T13:40:17;21.20;63.60
30473;DHT22;17263;48.160;11.452;2024-03-29T13:42:43;21.20;64.50
30473;DHT22;17263;48.160;11.452;2024-03-29T13:45:09;21.20;62.90
30473;DHT22;17263;48.160;11.452;2024-03-29T13:47:37;21.20;62.50
30473;DHT22;17263;48.160;11.452;2024-03-29T13:50:03;21.20;63.40
30473;DHT22;17263;48.160;11.452;2024-03-29T13:52:29;21.30;63.10
30473;DHT22;17263;48.160;11.452;2024-03-29T13:54:56;21.30;63.20
30473;DHT22;17263;48.160;11.452;2024-03-29T13:57:22;21.40;63.10
30473;DHT22;17263;48.160;11.452;2024-03-29T13:59:48;21.40;63.20
30473;DHT22;17263;48.160;11.452;2024-03-29T14:02:17;21.50;62.50
30473;DHT22;17263;48.160;11.452;2024-03-29T14:04:44;21.50;61.70
30473;DHT22;17263;48.160;11.452;2024-03-29T14:07:12;21.50;60.40
30473;DHT22;17263;48.160;11.452;2024-03-29T14:09:42;21.40;61.80
30473;DHT22;17263;48.160;11.452;2024-03-29T14:12:09;21.50;61.00
30473;DHT22;17263;48.160;11.452;2024-03-29T14:14:35;21.50;61.10
30473;DHT22;17263;48.160;11.452;2024-03-29T14:17:02;21.50;61.50
30473;DHT22;17263;48.160;11.452;2024-03-29T14:19:33;21.50;62.80
30473;DHT22;17263;48.160;11.452;2024-03-29T14:22:03;21.40;61.00
30473;DHT22;17263;48.160;11.452;2024-03-29T14:24:30;21.20;61.60
30473;DHT22;17263;48.160;11.452;2024-03-29T14:26:59;21.20;62.30
30473;DHT22;17263;48.160;11.452;2024-03-29T14:29:25;21.10;63.40
30473;DHT22;17263;48.160;11.452;2024-03-29T14:31:51;21.10;63.40
30473;DHT22;17263;48.160;11.452;2024-03-29T14:34:19;21.20;61.90
30473;DHT22;17263;48.160;11.452;2024-03-29T14:36:45;21.10;62.50
30473;DHT22;17263;48.160;11.452;2024-03-29T14:39:11;21.10;61.80
30473;DHT22;17263;48.160;11.452;2024-03-29T14:41:40;21.10;61.80
30473;DHT22;17263;48.160;11.452;2024-03-29T14:44:06;21.00;59.50
30473;DHT22;17263;48.160;11.452;2024-03-29T14:46:33;20.90;59.90
30473;DHT22;17263;48.160;11.452;2024-03-29T14:49:03;20.90;58.90
30473;DHT22;17263;48.160;11.452;2024-03-29T14:51:32;20.90;58.80
30473;DHT22;17263;48.160;11.452;2024-03-29T14:53:58;20.90;59.50
30473;DHT22;17263;48.160;11.452;2024-03-29T14:56:24;20.90;59.20
30473;DHT22;17263;48.160;11.452;2024-03-29T14:58:50;20.80;59.40
30473;DHT22;17263;48.160;11.452;2024-03-29T15:01:16;20.80;59.50
30473;DHT22;17263;48.160;11.452;2024-03-29T15:03:42;20.80;59.60
30473;DHT22;17263;48.160;11.452;2024-03-29T15:06:10;20.80;60.80
30473;DHT22;17263;48.160;11.452;2024-03-29T15:08:36;20.80;59.90
30473;DHT22;17263;48.160;11.452;2024-03-29T15:11:02;20.80;59.60
30473;DHT22;17263;48.160;11.452;2024-03-29T15:13:29;20.80;59.20
30473;DHT22;17263;48.160;11.452;2024-03-29T15:15:59;20.90;59.00
30473;DHT22;17263;48.160;11.452;2024-03-29T15:18:26;20.80;59.20
30473;DHT22;17263;48.160;11.452;2024-03-29T15:21:02;20.80;59.20
30473;DHT22;17263;48.160;11.452;2024-03-29T15:23:30;20.60;59.70
30473;DHT22;17263;48.160;11.452;2024-03-29T15:25:58;20.50;59.00